sensor_id;sensor_type;location;lat;lon;timestamp;P1;durP1;ratioP1;P2;durP2;ratioP2
12224;SDS011;6175;50.956;11.064;2022-12-07T00:01:17;5.50;;;4.53;;
12224;SDS011;6175;50.956;11.064;2022-12-07T00:03:46;5.97;;;4.70;;
12224;SDS011;6175;50.956;11.064;2022-12-07T00:06:14;5.87;;;4.73;;
12224;SDS011;6175;50.956;11.064;2022-12-07T00:08:44;6.57;;;4.50;;
12224;SDS011;6175;50.956;11.064;2022-12-07T00:11:12;5.27;;;4.17;;
12224;SDS011;6175;50.956;11.064;2022-12-07T00:13:41;5.67;;;4.70;;
12224;SDS011;6175;50.956;11.064;2022-12-07T00:16:09;6.00;;;5.07;;
12224;SDS011;6175;50.956;11.064;2022-12-07T00:18:37;6.47;;;4.60;;
12224;SDS011;6175;50.956;11.064;2022-12-07T00:21:05;5.57;;;4.27;;
12224;SDS011;6175;50.956;11.064;2022-12-07T00:23:33;5.03;;;4.30;;
12224;SDS011;6175;50.956;11.064;2022-12-07T00:26:06;6.07;;;4.47;;
12224;SDS011;6175;50.956;11.064;2022-12-07T00:28:34;6.37;;;4.80;;
12224;SDS011;6175;50.956;11.064;2022-12-07T00:31:02;7.00;;;5.23;;
12224;SDS011;6175;50.956;11.064;2022-12-07T00:33:31;5.90;;;4.37;;
12224;SDS011;6175;50.956;11.064;2022-12-07T00:35:58;4.80;;;4.03;;
12224;SDS011;6175;50.956;11.064;2022-12-07T00:38:27;5.37;;;4.20;;
12224;SDS011;6175;50.956;11.064;2022-12-07T00:40:56;4.47;;;3.90;;
12224;SDS011;6175;50.956;11.064;2022-12-07T00:43:25;5.47;;;4.40;;
12224;SDS011;6175;50.956;11.064;2022-12-07T00:45:53;4.07;;;3.67;;
12224;SDS011;6175;50.956;11.064;2022-12-07T00:48:21;4.43;;;3.80;;
12224;SDS011;6175;50.956;11.064;2022-12-07T00:50:48;4.13;;;3.70;;
12224;SDS011;6175;50.956;11.064;2022-12-07T00:53:16;4.10;;;3.70;;
12224;SDS011;6175;50.956;11.064;2022-12-07T00:55:43;4.67;;;4.00;;
12224;SDS011;6175;50.956;11.064;2022-12-07T00:58:10;5.47;;;3.73;;
12224;SDS011;6175;50.956;11.064;2022-12-07T01:00:39;5.50;;;4.07;;
12224;SDS011;6175;50.956;11.064;2022-12-07T01:03:09;4.03;;;3.60;;
12224;SDS011;6175;50.956;11.064;2022-12-07T01:05:37;5.77;;;4.07;;
12224;SDS011;6175;50.956;11.064;2022-12-07T01:08:05;3.80;;;3.07;;
12224;SDS011;6175;50.956;11.064;2022-12-07T01:10:32;4.73;;;4.23;;
12224;SDS011;6175;50.956;11.064;2022-12-07T01:12:59;4.23;;;3.70;;
12224;SDS011;6175;50.956;11.064;2022-12-07T01:15:26;5.37;;;3.80;;
12224;SDS011;6175;50.956;11.064;2022-12-07T01:17:55;5.57;;;3.90;;
12224;SDS011;6175;50.956;11.064;2022-12-07T01:20:22;5.47;;;4.23;;
12224;SDS011;6175;50.956;11.064;2022-12-07T01:22:49;5.57;;;4.30;;
12224;SDS011;6175;50.956;11.064;2022-12-07T01:25:16;5.87;;;4.37;;
12224;SDS011;6175;50.956;11.064;2022-12-07T01:27:43;6.03;;;4.53;;
12224;SDS011;6175;50.956;11.064;2022-12-07T01:30:11;6.10;;;4.50;;
12224;SDS011;6175;50.956;11.064;2022-12-07T01:32:39;6.40;;;5.20;;
12224;SDS011;6175;50.956;11.064;2022-12-07T01:35:08;7.10;;;4.70;;
12224;SDS011;6175;50.956;11.064;2022-12-07T01:37:35;6.40;;;4.90;;
12224;SDS011;6175;50.956;11.064;2022-12-07T01:40:03;7.63;;;5.30;;
12224;SDS011;6175;50.956;11.064;2022-12-07T01:42:31;6.37;;;5.27;;
12224;SDS011;6175;50.956;11.064;2022-12-07T01:48:09;7.07;;;5.40;;
12224;SDS011;6175;50.956;11.064;2022-12-07T01:50:41;6.87;;;5.53;;
12224;SDS011;6175;50.956;11.064;2022-12-07T01:53:11;7.23;;;5.33;;
12224;SDS011;6175;50.956;11.064;2022-12-07T01:55:40;7.67;;;5.37;;
12224;SDS011;6175;50.956;11.064;2022-12-07T01:58:10;6.13;;;5.20;;
12224;SDS011;6175;50.956;11.064;2022-12-07T02:00:38;7.33;;;6.17;;
12224;SDS011;6175;50.956;11.064;2022-12-07T02:03:07;6.10;;;5.30;;
12224;SDS011;6175;50.956;11.064;2022-12-07T02:05:38;7.73;;;5.30;;
12224;SDS011;6175;50.956;11.064;2022-12-07T02:08:09;7.00;;;5.50;;
12224;SDS011;6175;50.956;11.064;2022-12-07T02:10:38;5.80;;;5.23;;
12224;SDS011;6175;50.956;11.064;2022-12-07T02:13:06;7.40;;;5.60;;
12224;SDS011;6175;50.956;11.064;2022-12-07T02:15:44;7.50;;;5.03;;
12224;SDS011;6175;50.956;11.064;2022-12-07T02:18:25;6.00;;;5.07;;
12224;SDS011;6175;50.956;11.064;2022-12-07T02:21:05;6.33;;;4.50;;
12224;SDS011;6175;50.956;11.064;2022-12-07T02:23:41;4.43;;;3.87;;
12224;SDS011;6175;50.956;11.064;2022-12-07T02:29:32;5.10;;;4.60;;
12224;SDS011;6175;50.956;11.064;2022-12-07T02:32:06;6.50;;;5.00;;
12224;SDS011;6175;50.956;11.064;2022-12-07T02:34:39;5.30;;;4.27;;
12224;SDS011;6175;50.956;11.064;2022-12-07T02:37:17;5.93;;;4.83;;
12224;SDS011;6175;50.956;11.064;2022-12-07T02:39:53;7.23;;;5.33;;
12224;SDS011;6175;50.956;11.064;2022-12-07T02:42:25;5.50;;;5.00;;
12224;SDS011;6175;50.956;11.064;2022-12-07T02:44:59;6.07;;;5.13;;
12224;SDS011;6175;50.956;11.064;2022-12-07T02:47:27;7.33;;;5.43;;
12224;SDS011;6175;50.956;11.064;2022-12-07T02:49:55;7.07;;;5.30;;
12224;SDS011;6175;50.956;11.064;2022-12-07T02:52:23;7.50;;;5.37;;
12224;SDS011;6175;50.956;11.064;2022-12-07T02:54:50;8.87;;;6.30;;
12224;SDS011;6175;50.956;11.064;2022-12-07T02:57:21;7.90;;;6.20;;
12224;SDS011;6175;50.956;11.064;2022-12-07T03:00:01;8.53;;;6.53;;
12224;SDS011;6175;50.956;11.064;2022-12-07T03:02:35;7.23;;;6.30;;
12224;SDS011;6175;50.956;11.064;2022-12-07T03:05:12;8.80;;;6.97;;
12224;SDS011;6175;50.956;11.064;2022-12-07T03:07:51;8.47;;;6.67;;
12224;SDS011;6175;50.956;11.064;2022-12-07T03:10:27;7.57;;;6.73;;
12224;SDS011;6175;50.956;11.064;2022-12-07T03:13:02;8.73;;;6.60;;
12224;SDS011;6175;50.956;11.064;2022-12-07T03:15:35;7.60;;;5.93;;
12224;SDS011;6175;50.956;11.064;2022-12-07T03:18:09;7.60;;;6.17;;
12224;SDS011;6175;50.956;11.064;2022-12-07T03:20:39;7.63;;;6.03;;
12224;SDS011;6175;50.956;11.064;2022-12-07T03:23:08;7.30;;;5.73;;
12224;SDS011;6175;50.956;11.064;2022-12-07T03:25:39;7.60;;;6.20;;
12224;SDS011;6175;50.956;11.064;2022-12-07T03:28:08;7.57;;;6.03;;
12224;SDS011;6175;50.956;11.064;2022-12-07T03:30:42;7.03;;;6.00;;
12224;SDS011;6175;50.956;11.064;2022-12-07T03:33:13;8.07;;;6.47;;
12224;SDS011;6175;50.956;11.064;2022-12-07T03:35:47;7.70;;;6.40;;
12224;SDS011;6175;50.956;11.064;2022-12-07T03:38:19;8.30;;;6.70;;
12224;SDS011;6175;50.956;11.064;2022-12-07T03:40:53;7.63;;;6.23;;
12224;SDS011;6175;50.956;11.064;2022-12-07T03:43:25;8.10;;;6.40;;
12224;SDS011;6175;50.956;11.064;2022-12-07T03:45:58;7.80;;;6.23;;
12224;SDS011;6175;50.956;11.064;2022-12-07T03:48:33;8.73;;;6.17;;
12224;SDS011;6175;50.956;11.064;2022-12-07T03:51:06;9.83;;;7.10;;
12224;SDS011;6175;50.956;11.064;2022-12-07T03:53:40;9.53;;;7.17;;
12224;SDS011;6175;50.956;11.064;2022-12-07T03:56:09;8.77;;;6.87;;
12224;SDS011;6175;50.956;11.064;2022-12-07T03:58:38;8.33;;;6.70;;
12224;SDS011;6175;50.956;11.064;2022-12-07T04:01:08;7.83;;;6.37;;
12224;SDS011;6175;50.956;11.064;2022-12-07T04:03:35;8.17;;;6.90;;
12224;SDS011;6175;50.956;11.064;2022-12-07T04:06:03;8.83;;;7.27;;
12224;SDS011;6175;50.956;11.064;2022-12-07T04:08:30;8.87;;;6.83;;
12224;SDS011;6175;50.956;11.064;2022-12-07T04:10:57;8.40;;;6.40;;
12224;SDS011;6175;50.956;11.064;2022-12-07T04:13:24;8.63;;;6.77;;
12224;SDS011;6175;50.956;11.064;2022-12-07T04:15:51;9.03;;;7.60;;
12224;SDS011;6175;50.956;11.064;2022-12-07T04:18:20;8.27;;;6.93;;
12224;SDS011;6175;50.956;11.064;2022-12-07T04:20:47;8.37;;;6.63;;
12224;SDS011;6175;50.956;11.064;2022-12-07T04:23:14;8.90;;;6.90;;
12224;SDS011;6175;50.956;11.064;2022-12-07T04:25:42;9.67;;;7.07;;
12224;SDS011;6175;50.956;11.064;2022-12-07T04:28:09;8.37;;;6.47;;
12224;SDS011;6175;50.956;11.064;2022-12-07T04:30:36;7.73;;;5.67;;
12224;SDS011;6175;50.956;11.064;2022-12-07T04:33:03;7.47;;;6.00;;
12224;SDS011;6175;50.956;11.064;2022-12-07T04:35:32;8.33;;;6.23;;
12224;SDS011;6175;50.956;11.064;2022-12-07T04:37:59;6.95;;;6.05;;
12224;SDS011;6175;50.956;11.064;2022-12-07T04:40:27;6.17;;;5.57;;
12224;SDS011;6175;50.956;11.064;2022-12-07T04:42:54;8.33;;;6.60;;
12224;SDS011;6175;50.956;11.064;2022-12-07T04:45:21;7.83;;;6.43;;
12224;SDS011;6175;50.956;11.064;2022-12-07T04:47:49;8.27;;;6.93;;
12224;SDS011;6175;50.956;11.064;2022-12-07T04:50:16;10.13;;;6.90;;
12224;SDS011;6175;50.956;11.064;2022-12-07T04:52:44;8.70;;;6.80;;
12224;SDS011;6175;50.956;11.064;2022-12-07T04:55:11;8.67;;;6.97;;
12224;SDS011;6175;50.956;11.064;2022-12-07T04:57:38;9.83;;;7.30;;
12224;SDS011;6175;50.956;11.064;2022-12-07T05:00:06;9.73;;;7.63;;
12224;SDS011;6175;50.956;11.064;2022-12-07T05:02:34;11.00;;;8.40;;
12224;SDS011;6175;50.956;11.064;2022-12-07T05:05:01;9.50;;;7.43;;
12224;SDS011;6175;50.956;11.064;2022-12-07T05:07:28;9.23;;;7.27;;
12224;SDS011;6175;50.956;11.064;2022-12-07T05:09:57;10.02;;;7.82;;
12224;SDS011;6175;50.956;11.064;2022-12-07T05:12:24;10.67;;;8.53;;
12224;SDS011;6175;50.956;11.064;2022-12-07T05:14:51;11.63;;;8.50;;
12224;SDS011;6175;50.956;11.064;2022-12-07T05:17:19;12.27;;;9.20;;
12224;SDS011;6175;50.956;11.064;2022-12-07T05:19:46;11.93;;;8.87;;
12224;SDS011;6175;50.956;11.064;2022-12-07T05:22:13;10.03;;;8.00;;
12224;SDS011;6175;50.956;11.064;2022-12-07T05:24:40;10.83;;;8.80;;
12224;SDS011;6175;50.956;11.064;2022-12-07T05:27:09;10.47;;;8.33;;
12224;SDS011;6175;50.956;11.064;2022-12-07T05:29:36;10.93;;;8.70;;
12224;SDS011;6175;50.956;11.064;2022-12-07T05:32:03;11.57;;;9.07;;
12224;SDS011;6175;50.956;11.064;2022-12-07T05:34:30;11.43;;;8.93;;
12224;SDS011;6175;50.956;11.064;2022-12-07T05:36:57;11.73;;;8.93;;
12224;SDS011;6175;50.956;11.064;2022-12-07T05:39:25;13.33;;;9.90;;
12224;SDS011;6175;50.956;11.064;2022-12-07T05:41:51;12.27;;;8.70;;
12224;SDS011;6175;50.956;11.064;2022-12-07T05:44:38;11.20;;;9.10;;
12224;SDS011;6175;50.956;11.064;2022-12-07T05:47:05;12.38;;;8.90;;
12224;SDS011;6175;50.956;11.064;2022-12-07T05:49:32;11.63;;;9.85;;
12224;SDS011;6175;50.956;11.064;2022-12-07T05:52:00;12.43;;;9.43;;
12224;SDS011;6175;50.956;11.064;2022-12-07T05:54:27;12.07;;;9.52;;
12224;SDS011;6175;50.956;11.064;2022-12-07T05:56:55;12.90;;;9.90;;
12224;SDS011;6175;50.956;11.064;2022-12-07T05:59:22;12.55;;;10.30;;
12224;SDS011;6175;50.956;11.064;2022-12-07T06:01:49;12.37;;;9.97;;
12224;SDS011;6175;50.956;11.064;2022-12-07T06:04:17;12.30;;;9.47;;
12224;SDS011;6175;50.956;11.064;2022-12-07T06:06:44;14.05;;;10.60;;
12224;SDS011;6175;50.956;11.064;2022-12-07T06:09:12;12.63;;;10.35;;
12224;SDS011;6175;50.956;11.064;2022-12-07T06:11:39;16.17;;;10.43;;
12224;SDS011;6175;50.956;11.064;2022-12-07T06:14:23;13.25;;;10.23;;
12224;SDS011;6175;50.956;11.064;2022-12-07T06:16:51;13.57;;;10.13;;
12224;SDS011;6175;50.956;11.064;2022-12-07T06:19:19;13.07;;;9.90;;
12224;SDS011;6175;50.956;11.064;2022-12-07T06:21:46;13.03;;;10.13;;
12224;SDS011;6175;50.956;11.064;2022-12-07T06:24:13;13.90;;;10.53;;
12224;SDS011;6175;50.956;11.064;2022-12-07T06:26:42;14.53;;;10.57;;
12224;SDS011;6175;50.956;11.064;2022-12-07T06:29:10;15.63;;;10.77;;
12224;SDS011;6175;50.956;11.064;2022-12-07T06:31:37;14.07;;;10.50;;
12224;SDS011;6175;50.956;11.064;2022-12-07T06:34:08;11.50;;;9.30;;
12224;SDS011;6175;50.956;11.064;2022-12-07T06:36:36;14.27;;;9.83;;
12224;SDS011;6175;50.956;11.064;2022-12-07T06:39:04;14.17;;;10.17;;
12224;SDS011;6175;50.956;11.064;2022-12-07T06:41:32;12.37;;;9.17;;
12224;SDS011;6175;50.956;11.064;2022-12-07T06:43:59;11.67;;;9.43;;
12224;SDS011;6175;50.956;11.064;2022-12-07T06:46:26;15.83;;;11.03;;
12224;SDS011;6175;50.956;11.064;2022-12-07T06:48:54;14.30;;;11.00;;
12224;SDS011;6175;50.956;11.064;2022-12-07T06:51:23;13.90;;;10.13;;
12224;SDS011;6175;50.956;11.064;2022-12-07T06:53:50;12.60;;;10.18;;
12224;SDS011;6175;50.956;11.064;2022-12-07T06:56:17;11.37;;;9.13;;
12224;SDS011;6175;50.956;11.064;2022-12-07T06:58:44;13.73;;;10.97;;
12224;SDS011;6175;50.956;11.064;2022-12-07T07:01:12;15.97;;;11.33;;
12224;SDS011;6175;50.956;11.064;2022-12-07T07:03:40;14.93;;;11.13;;
12224;SDS011;6175;50.956;11.064;2022-12-07T07:06:08;14.10;;;10.27;;
12224;SDS011;6175;50.956;11.064;2022-12-07T07:08:37;16.37;;;11.37;;
12224;SDS011;6175;50.956;11.064;2022-12-07T07:11:05;14.20;;;10.50;;
12224;SDS011;6175;50.956;11.064;2022-12-07T07:13:33;14.23;;;10.97;;
12224;SDS011;6175;50.956;11.064;2022-12-07T07:16:00;15.67;;;10.67;;
12224;SDS011;6175;50.956;11.064;2022-12-07T07:18:28;16.23;;;11.10;;
12224;SDS011;6175;50.956;11.064;2022-12-07T07:20:55;15.40;;;10.87;;
12224;SDS011;6175;50.956;11.064;2022-12-07T07:23:22;16.13;;;10.80;;
12224;SDS011;6175;50.956;11.064;2022-12-07T07:25:51;14.50;;;11.10;;
12224;SDS011;6175;50.956;11.064;2022-12-07T07:28:18;15.37;;;11.27;;
12224;SDS011;6175;50.956;11.064;2022-12-07T07:30:45;17.47;;;11.33;;
12224;SDS011;6175;50.956;11.064;2022-12-07T07:33:12;16.57;;;11.23;;
12224;SDS011;6175;50.956;11.064;2022-12-07T07:35:40;15.33;;;10.30;;
12224;SDS011;6175;50.956;11.064;2022-12-07T07:38:07;15.13;;;10.03;;
12224;SDS011;6175;50.956;11.064;2022-12-07T07:40:35;15.20;;;10.37;;
12224;SDS011;6175;50.956;11.064;2022-12-07T07:43:03;12.23;;;9.37;;
12224;SDS011;6175;50.956;11.064;2022-12-07T07:45:30;14.63;;;9.37;;
12224;SDS011;6175;50.956;11.064;2022-12-07T07:47:57;13.90;;;9.90;;
12224;SDS011;6175;50.956;11.064;2022-12-07T07:50:24;13.05;;;9.75;;
12224;SDS011;6175;50.956;11.064;2022-12-07T07:52:51;11.23;;;8.95;;
12224;SDS011;6175;50.956;11.064;2022-12-07T07:55:19;12.50;;;9.10;;
12224;SDS011;6175;50.956;11.064;2022-12-07T07:57:46;10.98;;;9.00;;
12224;SDS011;6175;50.956;11.064;2022-12-07T08:00:15;13.27;;;8.82;;
12224;SDS011;6175;50.956;11.064;2022-12-07T08:02:43;11.97;;;9.57;;
12224;SDS011;6175;50.956;11.064;2022-12-07T08:05:11;12.88;;;9.35;;
12224;SDS011;6175;50.956;11.064;2022-12-07T08:07:39;11.63;;;8.83;;
12224;SDS011;6175;50.956;11.064;2022-12-07T08:10:07;12.50;;;9.30;;
12224;SDS011;6175;50.956;11.064;2022-12-07T08:12:37;11.10;;;8.70;;
12224;SDS011;6175;50.956;11.064;2022-12-07T08:15:27;11.43;;;8.73;;
12224;SDS011;6175;50.956;11.064;2022-12-07T08:17:55;13.55;;;9.20;;
12224;SDS011;6175;50.956;11.064;2022-12-07T08:20:22;11.40;;;8.93;;
12224;SDS011;6175;50.956;11.064;2022-12-07T08:22:49;12.43;;;9.20;;
12224;SDS011;6175;50.956;11.064;2022-12-07T08:25:17;10.97;;;8.00;;
12224;SDS011;6175;50.956;11.064;2022-12-07T08:27:44;10.82;;;8.45;;
12224;SDS011;6175;50.956;11.064;2022-12-07T08:30:12;13.13;;;9.07;;
12224;SDS011;6175;50.956;11.064;2022-12-07T08:32:40;10.80;;;8.00;;
12224;SDS011;6175;50.956;11.064;2022-12-07T08:35:07;11.13;;;8.33;;
12224;SDS011;6175;50.956;11.064;2022-12-07T08:37:35;10.30;;;8.27;;
12224;SDS011;6175;50.956;11.064;2022-12-07T08:40:02;10.77;;;7.90;;
12224;SDS011;6175;50.956;11.064;2022-12-07T08:42:29;8.53;;;7.60;;
12224;SDS011;6175;50.956;11.064;2022-12-07T08:45:03;9.60;;;7.33;;
12224;SDS011;6175;50.956;11.064;2022-12-07T08:47:31;12.03;;;8.27;;
12224;SDS011;6175;50.956;11.064;2022-12-07T08:50:00;11.82;;;7.57;;
12224;SDS011;6175;50.956;11.064;2022-12-07T08:52:29;8.30;;;6.55;;
12224;SDS011;6175;50.956;11.064;2022-12-07T08:54:56;6.97;;;5.63;;
12224;SDS011;6175;50.956;11.064;2022-12-07T08:57:25;8.93;;;6.22;;
12224;SDS011;6175;50.956;11.064;2022-12-07T08:59:53;8.33;;;6.13;;
12224;SDS011;6175;50.956;11.064;2022-12-07T09:02:21;9.00;;;6.00;;
12224;SDS011;6175;50.956;11.064;2022-12-07T09:04:48;9.65;;;6.35;;
12224;SDS011;6175;50.956;11.064;2022-12-07T09:07:17;7.28;;;4.97;;
12224;SDS011;6175;50.956;11.064;2022-12-07T09:09:44;7.82;;;6.05;;
12224;SDS011;6175;50.956;11.064;2022-12-07T09:12:11;7.60;;;5.68;;
12224;SDS011;6175;50.956;11.064;2022-12-07T09:14:39;6.40;;;5.15;;
12224;SDS011;6175;50.956;11.064;2022-12-07T09:17:06;6.20;;;5.15;;
12224;SDS011;6175;50.956;11.064;2022-12-07T09:19:34;6.38;;;5.07;;
12224;SDS011;6175;50.956;11.064;2022-12-07T09:22:02;8.05;;;4.85;;
12224;SDS011;6175;50.956;11.064;2022-12-07T09:24:31;5.13;;;4.47;;
12224;SDS011;6175;50.956;11.064;2022-12-07T09:26:58;8.27;;;4.68;;
12224;SDS011;6175;50.956;11.064;2022-12-07T09:29:25;4.65;;;4.07;;
12224;SDS011;6175;50.956;11.064;2022-12-07T09:31:52;5.35;;;3.97;;
12224;SDS011;6175;50.956;11.064;2022-12-07T09:34:19;5.78;;;4.43;;
12224;SDS011;6175;50.956;11.064;2022-12-07T09:36:46;6.27;;;4.17;;
12224;SDS011;6175;50.956;11.064;2022-12-07T09:39:13;5.10;;;4.50;;
12224;SDS011;6175;50.956;11.064;2022-12-07T09:41:42;6.87;;;4.47;;
12224;SDS011;6175;50.956;11.064;2022-12-07T09:44:11;5.93;;;4.10;;
12224;SDS011;6175;50.956;11.064;2022-12-07T09:46:41;4.80;;;3.90;;
12224;SDS011;6175;50.956;11.064;2022-12-07T09:49:10;5.10;;;4.23;;
12224;SDS011;6175;50.956;11.064;2022-12-07T09:51:41;8.63;;;4.87;;
12224;SDS011;6175;50.956;11.064;2022-12-07T09:54:08;6.73;;;4.10;;
12224;SDS011;6175;50.956;11.064;2022-12-07T09:56:39;5.38;;;4.10;;
12224;SDS011;6175;50.956;11.064;2022-12-07T09:59:12;5.78;;;4.15;;
12224;SDS011;6175;50.956;11.064;2022-12-07T10:01:43;4.63;;;3.90;;
12224;SDS011;6175;50.956;11.064;2022-12-07T10:04:12;6.38;;;4.82;;
12224;SDS011;6175;50.956;11.064;2022-12-07T10:06:42;5.90;;;3.90;;
12224;SDS011;6175;50.956;11.064;2022-12-07T10:09:10;7.00;;;4.45;;
12224;SDS011;6175;50.956;11.064;2022-12-07T10:14:26;4.85;;;4.35;;
12224;SDS011;6175;50.956;11.064;2022-12-07T10:16:54;6.10;;;4.10;;
12224;SDS011;6175;50.956;11.064;2022-12-07T10:19:23;6.45;;;4.60;;
12224;SDS011;6175;50.956;11.064;2022-12-07T10:22:02;4.47;;;4.00;;
12224;SDS011;6175;50.956;11.064;2022-12-07T10:24:31;5.18;;;4.38;;
12224;SDS011;6175;50.956;11.064;2022-12-07T10:26:58;5.03;;;4.00;;
12224;SDS011;6175;50.956;11.064;2022-12-07T10:29:29;5.82;;;4.22;;
12224;SDS011;6175;50.956;11.064;2022-12-07T10:31:59;5.32;;;3.72;;
12224;SDS011;6175;50.956;11.064;2022-12-07T10:34:28;5.20;;;3.70;;
12224;SDS011;6175;50.956;11.064;2022-12-07T10:37:14;5.28;;;3.35;;
12224;SDS011;6175;50.956;11.064;2022-12-07T10:39:43;4.43;;;3.28;;
12224;SDS011;6175;50.956;11.064;2022-12-07T10:42:21;6.03;;;3.53;;
12224;SDS011;6175;50.956;11.064;2022-12-07T10:45:07;4.57;;;3.60;;
12224;SDS011;6175;50.956;11.064;2022-12-07T10:47:36;4.93;;;3.30;;
12224;SDS011;6175;50.956;11.064;2022-12-07T10:50:31;3.92;;;2.97;;
12224;SDS011;6175;50.956;11.064;2022-12-07T10:53:20;4.15;;;3.20;;
12224;SDS011;6175;50.956;11.064;2022-12-07T10:56:02;3.95;;;2.88;;
12224;SDS011;6175;50.956;11.064;2022-12-07T10:58:59;3.90;;;3.15;;
12224;SDS011;6175;50.956;11.064;2022-12-07T11:01:41;4.40;;;2.90;;
12224;SDS011;6175;50.956;11.064;2022-12-07T11:04:18;3.42;;;2.88;;
12224;SDS011;6175;50.956;11.064;2022-12-07T11:06:57;5.05;;;3.35;;
12224;SDS011;6175;50.956;11.064;2022-12-07T11:12:23;3.90;;;2.70;;
12224;SDS011;6175;50.956;11.064;2022-12-07T11:14:58;3.25;;;2.95;;
12224;SDS011;6175;50.956;11.064;2022-12-07T11:17:34;5.20;;;2.47;;
12224;SDS011;6175;50.956;11.064;2022-12-07T11:20:12;3.53;;;2.53;;
12224;SDS011;6175;50.956;11.064;2022-12-07T11:22:50;2.85;;;2.10;;
12224;SDS011;6175;50.956;11.064;2022-12-07T11:25:23;3.15;;;2.85;;
12224;SDS011;6175;50.956;11.064;2022-12-07T11:28:01;6.82;;;2.83;;
12224;SDS011;6175;50.956;11.064;2022-12-07T11:30:38;3.67;;;2.75;;
12224;SDS011;6175;50.956;11.064;2022-12-07T11:33:17;3.30;;;2.75;;
12224;SDS011;6175;50.956;11.064;2022-12-07T11:35:54;3.20;;;2.90;;
12224;SDS011;6175;50.956;11.064;2022-12-07T11:38:30;3.25;;;2.95;;
12224;SDS011;6175;50.956;11.064;2022-12-07T11:41:05;4.03;;;3.00;;
12224;SDS011;6175;50.956;11.064;2022-12-07T11:43:50;3.88;;;2.90;;
12224;SDS011;6175;50.956;11.064;2022-12-07T11:46:23;5.03;;;3.20;;
12224;SDS011;6175;50.956;11.064;2022-12-07T11:48:58;4.97;;;3.03;;
12224;SDS011;6175;50.956;11.064;2022-12-07T11:51:34;3.95;;;2.95;;
12224;SDS011;6175;50.956;11.064;2022-12-07T11:54:05;4.10;;;2.83;;
12224;SDS011;6175;50.956;11.064;2022-12-07T11:56:40;4.60;;;2.60;;
12224;SDS011;6175;50.956;11.064;2022-12-07T11:59:08;3.55;;;2.35;;
12224;SDS011;6175;50.956;11.064;2022-12-07T12:01:45;3.72;;;2.35;;
12224;SDS011;6175;50.956;11.064;2022-12-07T12:07:06;4.43;;;2.35;;
12224;SDS011;6175;50.956;11.064;2022-12-07T12:09:34;3.45;;;2.10;;
12224;SDS011;6175;50.956;11.064;2022-12-07T12:12:17;3.75;;;2.50;;
12224;SDS011;6175;50.956;11.064;2022-12-07T12:15:09;4.32;;;2.38;;
12224;SDS011;6175;50.956;11.064;2022-12-07T12:18:11;4.88;;;2.20;;
12224;SDS011;6175;50.956;11.064;2022-12-07T12:20:54;3.40;;;2.22;;
12224;SDS011;6175;50.956;11.064;2022-12-07T12:23:24;2.88;;;2.15;;
12224;SDS011;6175;50.956;11.064;2022-12-07T12:26:02;2.75;;;2.25;;
12224;SDS011;6175;50.956;11.064;2022-12-07T12:28:33;4.40;;;2.20;;
12224;SDS011;6175;50.956;11.064;2022-12-07T12:31:06;4.32;;;2.40;;
12224;SDS011;6175;50.956;11.064;2022-12-07T12:33:36;3.97;;;2.30;;
12224;SDS011;6175;50.956;11.064;2022-12-07T12:36:19;3.80;;;2.28;;
12224;SDS011;6175;50.956;11.064;2022-12-07T12:38:50;3.08;;;2.00;;
12224;SDS011;6175;50.956;11.064;2022-12-07T12:51:35;2.67;;;1.73;;
12224;SDS011;6175;50.956;11.064;2022-12-07T12:54:04;2.35;;;1.80;;
12224;SDS011;6175;50.956;11.064;2022-12-07T12:56:39;4.55;;;2.40;;
12224;SDS011;6175;50.956;11.064;2022-12-07T12:59:26;2.33;;;1.80;;
12224;SDS011;6175;50.956;11.064;2022-12-07T13:01:56;1.88;;;1.67;;
12224;SDS011;6175;50.956;11.064;2022-12-07T13:04:48;3.88;;;2.10;;
12224;SDS011;6175;50.956;11.064;2022-12-07T13:10:32;3.15;;;1.75;;
12224;SDS011;6175;50.956;11.064;2022-12-07T13:13:03;2.53;;;1.98;;
12224;SDS011;6175;50.956;11.064;2022-12-07T13:15:53;3.00;;;1.80;;
12224;SDS011;6175;50.956;11.064;2022-12-07T13:18:24;1.92;;;1.65;;
12224;SDS011;6175;50.956;11.064;2022-12-07T13:21:01;2.13;;;1.92;;
12224;SDS011;6175;50.956;11.064;2022-12-07T13:23:31;3.85;;;1.70;;
12224;SDS011;6175;50.956;11.064;2022-12-07T13:26:04;2.63;;;1.85;;
12224;SDS011;6175;50.956;11.064;2022-12-07T13:28:40;2.55;;;1.85;;
12224;SDS011;6175;50.956;11.064;2022-12-07T13:31:13;3.65;;;1.98;;
12224;SDS011;6175;50.956;11.064;2022-12-07T13:33:56;2.90;;;2.47;;
12224;SDS011;6175;50.956;11.064;2022-12-07T13:36:24;3.75;;;2.00;;
12224;SDS011;6175;50.956;11.064;2022-12-07T13:38:56;2.90;;;2.03;;
12224;SDS011;6175;50.956;11.064;2022-12-07T13:41:24;3.70;;;2.30;;
12224;SDS011;6175;50.956;11.064;2022-12-07T13:43:53;3.10;;;2.22;;
12224;SDS011;6175;50.956;11.064;2022-12-07T13:46:30;2.53;;;2.10;;
12224;SDS011;6175;50.956;11.064;2022-12-07T13:49:15;2.88;;;1.75;;
12224;SDS011;6175;50.956;11.064;2022-12-07T13:51:47;2.20;;;1.73;;
12224;SDS011;6175;50.956;11.064;2022-12-07T13:54:14;2.13;;;1.92;;
12224;SDS011;6175;50.956;11.064;2022-12-07T13:56:41;2.58;;;1.83;;
12224;SDS011;6175;50.956;11.064;2022-12-07T13:59:13;2.30;;;1.63;;
12224;SDS011;6175;50.956;11.064;2022-12-07T14:01:44;2.65;;;1.80;;
12224;SDS011;6175;50.956;11.064;2022-12-07T14:04:29;2.22;;;1.83;;
12224;SDS011;6175;50.956;11.064;2022-12-07T14:06:59;1.67;;;1.57;;
12224;SDS011;6175;50.956;11.064;2022-12-07T14:09:27;2.75;;;1.83;;
12224;SDS011;6175;50.956;11.064;2022-12-07T14:11:56;3.55;;;1.90;;
12224;SDS011;6175;50.956;11.064;2022-12-07T14:14:24;3.90;;;1.90;;
12224;SDS011;6175;50.956;11.064;2022-12-07T14:17:10;2.22;;;1.88;;
12224;SDS011;6175;50.956;11.064;2022-12-07T14:19:42;2.23;;;1.97;;
12224;SDS011;6175;50.956;11.064;2022-12-07T14:22:21;2.20;;;1.83;;
12224;SDS011;6175;50.956;11.064;2022-12-07T14:27:53;3.25;;;2.17;;
12224;SDS011;6175;50.956;11.064;2022-12-07T14:30:23;2.65;;;2.30;;
12224;SDS011;6175;50.956;11.064;2022-12-07T14:32:54;2.50;;;1.85;;
12224;SDS011;6175;50.956;11.064;2022-12-07T14:35:23;1.92;;;1.70;;
12224;SDS011;6175;50.956;11.064;2022-12-07T14:37:50;3.55;;;1.92;;
12224;SDS011;6175;50.956;11.064;2022-12-07T14:40:19;2.58;;;1.95;;
12224;SDS011;6175;50.956;11.064;2022-12-07T14:42:48;3.42;;;2.50;;
12224;SDS011;6175;50.956;11.064;2022-12-07T14:45:19;2.72;;;2.00;;
12224;SDS011;6175;50.956;11.064;2022-12-07T14:47:48;3.30;;;1.98;;
12224;SDS011;6175;50.956;11.064;2022-12-07T14:50:17;4.30;;;2.25;;
12224;SDS011;6175;50.956;11.064;2022-12-07T14:52:46;2.50;;;1.80;;
12224;SDS011;6175;50.956;11.064;2022-12-07T14:55:18;2.70;;;2.00;;
12224;SDS011;6175;50.956;11.064;2022-12-07T14:57:49;3.90;;;1.75;;
12224;SDS011;6175;50.956;11.064;2022-12-07T15:00:17;3.58;;;1.88;;
12224;SDS011;6175;50.956;11.064;2022-12-07T15:02:45;2.15;;;1.92;;
12224;SDS011;6175;50.956;11.064;2022-12-07T15:05:13;3.35;;;1.98;;
12224;SDS011;6175;50.956;11.064;2022-12-07T15:07:41;3.85;;;2.25;;
12224;SDS011;6175;50.956;11.064;2022-12-07T15:10:13;2.58;;;2.00;;
12224;SDS011;6175;50.956;11.064;2022-12-07T15:12:42;4.18;;;2.25;;
12224;SDS011;6175;50.956;11.064;2022-12-07T15:15:09;3.78;;;2.15;;
12224;SDS011;6175;50.956;11.064;2022-12-07T15:17:37;2.70;;;2.20;;
12224;SDS011;6175;50.956;11.064;2022-12-07T15:20:05;3.83;;;2.13;;
12224;SDS011;6175;50.956;11.064;2022-12-07T15:22:34;2.47;;;2.28;;
12224;SDS011;6175;50.956;11.064;2022-12-07T15:25:03;2.75;;;2.20;;
12224;SDS011;6175;50.956;11.064;2022-12-07T15:27:31;3.55;;;2.50;;
12224;SDS011;6175;50.956;11.064;2022-12-07T15:29:58;3.35;;;2.50;;
12224;SDS011;6175;50.956;11.064;2022-12-07T15:32:26;3.15;;;2.85;;
12224;SDS011;6175;50.956;11.064;2022-12-07T15:34:53;3.53;;;2.00;;